Time;durP1;ratioP1;P1;durP2;ratioP2;P2;SDS_P1;SDS_P2;PMS_P1;PMS_P2;Temp;Humidity;BMP_temperature;BMP_pressure;BME280_temperature;BME280_humidity;BME280_pressure;Samples;Min_cycle;Max_cycle;Signal;HPM_P1;HPM_P2
2023/04/01 00:01:38;;;;;;;6.53;2.55;;;9.70;99.90;;;;;;5028484;28;20045;-80
2023/04/01 00:04:03;;;;;;;7.88;2.20;;;9.70;99.90;;;;;;5022101;28;20128;-81
2023/04/01 00:06:29;;;;;;;10.18;3.00;;;9.70;99.90;;;;;;5038641;28;20037;-81
2023/04/01 00:08:55;;;;;;;10.93;2.40;;;9.70;99.90;;;;;;5070090;28;20035;-81
2023/04/01 00:11:20;;;;;;;10.35;2.60;;;9.70;99.90;;;;;;5038876;28;20025;-80
2023/04/01 00:13:46;;;;;;;8.98;2.38;;;9.70;99.90;;;;;;5036581;28;20482;-81
2023/04/01 00:16:13;;;;;;;8.95;2.65;;;9.70;99.90;;;;;;5039211;28;20104;-82
2023/04/01 00:18:38;;;;;;;7.22;2.60;;;9.60;99.90;;;;;;5022288;28;20056;-81
2023/04/01 00:21:04;;;;;;;9.88;2.03;;;9.60;99.90;;;;;;5034929;28;20057;-81
2023/04/01 00:23:30;;;;;;;13.80;2.10;;;9.60;99.90;;;;;;5037751;28;20039;-81
2023/04/01 00:25:55;;;;;;;7.65;2.45;;;9.50;99.90;;;;;;5030497;28;20027;-81
2023/04/01 00:28:21;;;;;;;9.32;2.53;;;9.60;99.90;;;;;;5030748;28;20039;-81
2023/04/01 00:30:47;;;;;;;11.25;2.63;;;9.50;99.90;;;;;;5029636;28;20123;-82
2023/04/01 00:33:13;;;;;;;11.88;2.50;;;9.50;99.90;;;;;;5037259;28;20058;-80
2023/04/01 00:35:39;;;;;;;8.23;2.50;;;9.50;99.90;;;;;;5030222;28;20060;-81
2023/04/01 00:38:05;;;;;;;7.72;2.92;;;9.50;99.90;;;;;;5039410;28;20021;-81
2023/04/01 00:40:34;;;;;;;5.22;2.20;;;9.50;99.90;;;;;;5031314;28;20039;-81
2023/04/01 00:43:00;;;;;;;5.80;2.40;;;9.50;99.90;;;;;;5032973;28;20048;-81
2023/04/01 00:45:30;;;;;;;8.60;2.22;;;9.50;99.90;;;;;;5029988;28;20603;-80
2023/04/01 00:47:58;;;;;;;8.75;2.75;;;9.50;99.90;;;;;;5028495;28;20132;-80
2023/04/01 00:50:25;;;;;;;6.38;2.63;;;9.50;99.90;;;;;;5030770;28;20149;-80
2023/04/01 00:52:54;;;;;;;9.63;2.92;;;9.60;99.90;;;;;;5029420;28;20064;-82
2023/04/01 00:55:21;;;;;;;6.13;2.20;;;9.50;99.90;;;;;;5030641;28;20040;-80
2023/04/01 00:57:50;;;;;;;9.40;2.65;;;9.50;99.90;;;;;;5044991;28;20025;-81
2023/04/01 01:00:16;;;;;;;8.20;2.20;;;9.50;99.90;;;;;;5034093;28;20045;-81
2023/04/01 01:02:46;;;;;;;8.45;2.10;;;9.50;99.90;;;;;;5040793;28;20094;-81
2023/04/01 01:05:15;;;;;;;4.30;1.77;;;9.50;99.90;;;;;;5037065;28;20494;-80
2023/04/01 01:07:46;;;;;;;9.45;2.53;;;9.50;99.90;;;;;;5040933;28;20364;-81
2023/04/01 01:10:31;;;;;;;11.40;2.90;;;9.50;99.90;;;;;;5036152;28;20033;-79
2023/04/01 01:13:11;;;;;;;9.70;1.92;;;9.60;99.90;;;;;;5034651;28;20053;-80
2023/04/01 01:15:49;;;;;;;7.38;2.00;;;9.60;99.90;;;;;;5026783;28;20029;-81
2023/04/01 01:19:00;;;;;;;12.73;3.00;;;9.60;99.90;;;;;;5027964;28;20533;-81
2023/04/01 01:21:57;;;;;;;9.98;1.98;;;9.60;99.90;;;;;;5018672;28;20112;-80
2023/04/01 01:25:11;;;;;;;13.48;2.58;;;9.50;99.90;;;;;;5027661;28;20060;-81
2023/04/01 01:27:42;;;;;;;10.43;3.08;;;9.60;99.90;;;;;;4954552;28;20037;-80
2023/04/01 01:30:20;;;;;;;12.02;2.20;;;9.50;99.90;;;;;;5039853;28;20029;-81
2023/04/01 01:33:03;;;;;;;10.60;2.20;;;9.60;99.90;;;;;;5032895;28;20030;-80
2023/04/01 01:35:37;;;;;;;7.35;2.03;;;9.60;99.90;;;;;;5031632;28;20032;-81
2023/04/01 01:38:08;;;;;;;11.25;2.42;;;9.60;99.90;;;;;;5032794;28;20033;-80
2023/04/01 01:40:36;;;;;;;4.43;2.00;;;9.50;99.90;;;;;;5026993;28;20022;-79
2023/04/01 01:43:08;;;;;;;9.52;2.33;;;9.50;99.90;;;;;;5048058;28;20045;-80
2023/04/01 01:45:38;;;;;;;4.32;1.63;;;9.60;99.90;;;;;;5038039;28;20025;-80
2023/04/01 01:48:06;;;;;;;6.20;2.03;;;9.50;99.90;;;;;;5032691;28;20427;-81
2023/04/01 01:50:33;;;;;;;9.88;2.20;;;9.60;99.90;;;;;;5041712;28;20062;-81
2023/04/01 01:53:07;;;;;;;4.40;1.75;;;9.60;99.90;;;;;;5040800;28;20534;-80
2023/04/01 01:55:47;;;;;;;5.53;1.60;;;9.50;99.90;;;;;;5034808;28;20035;-81
2023/04/01 01:58:42;;;;;;;10.68;2.00;;;9.50;99.90;;;;;;5041398;28;20040;-80
2023/04/01 02:01:30;;;;;;;7.32;2.00;;;9.50;99.90;;;;;;5040971;28;20108;-81
2023/04/01 02:03:58;;;;;;;7.20;2.00;;;9.50;99.90;;;;;;5040635;28;20115;-81
2023/04/01 02:06:27;;;;;;;7.35;1.85;;;9.50;99.90;;;;;;5037945;28;20119;-81
2023/04/01 02:09:00;;;;;;;12.13;2.50;;;9.50;99.90;;;;;;5034652;28;20040;-80
2023/04/01 02:11:38;;;;;;;8.93;2.13;;;9.50;99.90;;;;;;5031677;28;20038;-81
2023/04/01 02:14:17;;;;;;;5.75;1.60;;;9.50;99.90;;;;;;5029531;28;20021;-81
2023/04/01 02:16:58;;;;;;;5.40;1.80;;;9.50;99.90;;;;;;5037493;28;20033;-81
2023/04/01 02:19:50;;;;;;;6.03;1.90;;;9.40;99.90;;;;;;5039342;28;20025;-81
2023/04/01 02:22:22;;;;;;;9.10;1.80;;;9.40;99.90;;;;;;5043564;28;20048;-81
2023/04/01 02:24:50;;;;;;;8.00;1.85;;;9.40;99.90;;;;;;5039679;28;20029;-81
2023/04/01 02:27:16;;;;;;;7.07;1.88;;;9.40;99.90;;;;;;5042368;28;20032;-81
2023/04/01 02:29:42;;;;;;;4.88;1.70;;;9.40;99.90;;;;;;5041267;28;20029;-81
2023/04/01 02:32:09;;;;;;;5.57;1.95;;;9.40;99.90;;;;;;5039370;28;20545;-81
2023/04/01 02:34:36;;;;;;;7.72;1.80;;;9.40;99.90;;;;;;5033169;28;20501;-81
2023/04/01 02:37:01;;;;;;;8.13;1.70;;;9.40;99.90;;;;;;5036231;28;20029;-81
2023/04/01 02:39:27;;;;;;;7.60;1.77;;;9.40;99.90;;;;;;5034518;28;20112;-81
2023/04/01 02:41:53;;;;;;;5.20;1.70;;;9.40;99.90;;;;;;5034958;28;20053;-81
2023/04/01 02:44:18;;;;;;;6.07;1.65;;;9.40;99.90;;;;;;5032524;28;20025;-81
2023/04/01 02:46:44;;;;;;;10.40;1.73;;;9.40;99.90;;;;;;5036503;28;20451;-81
2023/04/01 02:49:10;;;;;;;4.75;1.35;;;9.40;99.90;;;;;;5042414;28;20033;-80
2023/04/01 02:51:36;;;;;;;7.82;1.95;;;9.30;99.90;;;;;;5041462;28;20065;-81
2023/04/01 02:54:02;;;;;;;7.28;1.88;;;9.40;99.90;;;;;;5037373;28;20421;-81
2023/04/01 02:56:28;;;;;;;7.25;2.20;;;9.40;99.90;;;;;;5043231;28;20029;-81
2023/04/01 02:58:54;;;;;;;5.38;1.55;;;9.40;99.90;;;;;;5041741;28;20029;-81
2023/04/01 03:01:20;;;;;;;3.53;1.65;;;9.30;99.90;;;;;;5037252;28;20065;-82
2023/04/01 03:03:46;;;;;;;4.85;1.80;;;9.30;99.90;;;;;;5030394;28;20064;-81
2023/04/01 03:06:15;;;;;;;4.00;1.52;;;9.30;99.90;;;;;;5037723;28;20455;-81
2023/04/01 03:08:41;;;;;;;7.25;1.65;;;9.30;99.90;;;;;;5039669;28;20482;-81
2023/04/01 03:11:06;;;;;;;6.50;1.80;;;9.30;99.90;;;;;;5038494;28;20110;-81
2023/04/01 03:13:35;;;;;;;4.75;1.40;;;9.30;99.90;;;;;;5036570;28;20113;-82
2023/04/01 03:16:01;;;;;;;4.70;1.60;;;9.30;99.90;;;;;;5035019;28;20061;-80
2023/04/01 03:18:27;;;;;;;8.23;1.38;;;9.30;99.90;;;;;;5042644;28;20067;-81
2023/04/01 03:20:52;;;;;;;5.93;1.60;;;9.30;99.90;;;;;;5033336;28;20045;-81
2023/04/01 03:23:20;;;;;;;5.45;1.45;;;9.30;99.90;;;;;;5027942;28;20083;-81
2023/04/01 03:25:47;;;;;;;4.70;1.40;;;9.30;99.90;;;;;;5029631;28;20467;-81
2023/04/01 03:28:14;;;;;;;4.63;1.65;;;9.30;99.90;;;;;;5020768;28;20068;-80
2023/04/01 03:30:39;;;;;;;2.17;1.17;;;9.30;99.90;;;;;;5033659;28;20048;-80
2023/04/01 03:33:13;;;;;;;2.53;1.48;;;9.30;99.90;;;;;;5024404;28;20028;-81
2023/04/01 03:35:39;;;;;;;4.72;1.60;;;9.30;99.90;;;;;;5027698;28;20032;-81
2023/04/01 03:38:04;;;;;;;5.95;1.40;;;9.30;99.90;;;;;;5027383;28;20021;-81
2023/04/01 03:40:30;;;;;;;4.10;1.20;;;9.30;99.90;;;;;;5029117;28;20030;-81
2023/04/01 03:42:56;;;;;;;6.80;1.90;;;9.30;99.90;;;;;;5032156;28;20478;-81
2023/04/01 03:45:22;;;;;;;7.78;2.08;;;9.30;99.90;;;;;;5033309;28;20127;-83
2023/04/01 03:47:48;;;;;;;4.80;1.45;;;9.30;99.90;;;;;;5037170;28;20028;-82
2023/04/01 03:50:13;;;;;;;6.93;2.15;;;9.30;99.90;;;;;;5036741;28;20689;-82
2023/04/01 03:52:39;;;;;;;3.47;1.90;;;9.30;99.90;;;;;;5035216;28;20463;-82
2023/04/01 03:55:05;;;;;;;5.43;1.65;;;9.30;99.90;;;;;;5033932;28;20459;-81
2023/04/01 03:57:32;;;;;;;3.92;1.60;;;9.30;99.90;;;;;;5025879;28;20033;-82
2023/04/01 03:59:58;;;;;;;3.95;1.70;;;9.30;99.90;;;;;;5037331;28;20075;-81
2023/04/01 04:02:24;;;;;;;7.80;1.60;;;9.30;99.90;;;;;;5031365;28;20036;-81
2023/04/01 04:04:49;;;;;;;4.43;1.50;;;9.30;99.90;;;;;;5027736;28;20462;-82
2023/04/01 04:07:15;;;;;;;5.38;1.10;;;9.30;99.90;;;;;;5028586;28;20032;-81
2023/04/01 04:09:41;;;;;;;4.50;1.42;;;9.20;99.90;;;;;;5028206;28;20437;-81
2023/04/01 04:12:09;;;;;;;4.28;2.03;;;9.20;99.90;;;;;;5029643;28;20033;-82
2023/04/01 04:14:35;;;;;;;3.88;1.60;;;9.30;99.90;;;;;;5022718;28;20033;-81
2023/04/01 04:17:00;;;;;;;2.30;1.30;;;9.20;99.90;;;;;;5039667;28;20029;-81
2023/04/01 04:19:26;;;;;;;4.63;2.20;;;9.20;99.90;;;;;;5017534;28;20116;-81
2023/04/01 04:21:52;;;;;;;6.55;1.92;;;9.20;99.90;;;;;;5026620;28;20083;-81
2023/04/01 04:24:18;;;;;;;5.18;1.52;;;9.20;99.90;;;;;;5031390;28;20033;-82
2023/04/01 04:26:43;;;;;;;2.78;1.52;;;9.20;99.90;;;;;;5037439;28;20441;-81
2023/04/01 04:29:10;;;;;;;2.13;1.27;;;9.20;99.90;;;;;;5029499;28;20022;-82
2023/04/01 04:31:36;;;;;;;4.20;1.52;;;9.20;99.90;;;;;;5030124;28;20453;-81
2023/04/01 04:34:01;;;;;;;4.82;1.70;;;9.20;99.90;;;;;;5023272;28;20113;-82
2023/04/01 04:36:27;;;;;;;1.27;1.08;;;9.20;99.90;;;;;;5030734;28;20099;-81
2023/04/01 04:38:53;;;;;;;1.38;1.08;;;9.20;99.90;;;;;;5028982;28;20033;-82
2023/04/01 04:41:19;;;;;;;4.60;1.13;;;9.20;99.90;;;;;;5036799;28;20508;-82
2023/04/01 04:43:55;;;;;;;4.95;1.40;;;9.20;99.90;;;;;;5037517;28;20490;-81
2023/04/01 04:46:22;;;;;;;3.08;2.00;;;9.20;99.90;;;;;;5030960;28;20036;-81
2023/04/01 04:48:48;;;;;;;10.52;1.73;;;9.20;99.90;;;;;;5031964;28;20083;-82
2023/04/01 04:51:18;;;;;;;3.47;1.42;;;9.20;99.90;;;;;;5029567;28;20021;-81
2023/04/01 04:53:45;;;;;;;5.35;1.60;;;9.20;99.90;;;;;;5040726;28;20376;-81
2023/04/01 04:56:11;;;;;;;6.50;1.58;;;9.20;99.90;;;;;;5031318;28;20036;-81
2023/04/01 04:58:37;;;;;;;4.55;1.27;;;9.20;99.90;;;;;;5033687;28;20029;-80
2023/04/01 05:01:08;;;;;;;2.95;1.23;;;9.20;99.90;;;;;;5035382;28;20207;-82
2023/04/01 05:03:33;;;;;;;4.57;1.70;;;9.20;99.90;;;;;;5036557;28;20095;-81
2023/04/01 05:05:59;;;;;;;2.97;1.10;;;9.30;99.90;;;;;;5028692;28;20120;-81
2023/04/01 05:08:24;;;;;;;3.70;1.30;;;9.30;99.90;;;;;;5028178;28;20497;-81
2023/04/01 05:10:50;;;;;;;5.43;1.55;;;9.30;99.90;;;;;;5029276;28;20028;-81
2023/04/01 05:13:15;;;;;;;4.03;1.65;;;9.30;99.90;;;;;;5036227;28;20597;-81
2023/04/01 05:15:41;;;;;;;4.68;1.42;;;9.30;99.90;;;;;;5034460;28;20482;-81
2023/04/01 05:18:07;;;;;;;3.55;1.80;;;9.30;99.90;;;;;;5031649;28;20021;-81
2023/04/01 05:20:32;;;;;;;3.03;1.60;;;9.40;99.90;;;;;;5031991;28;20044;-81
2023/04/01 05:22:59;;;;;;;3.95;1.77;;;9.30;99.90;;;;;;5032819;28;20125;-81
2023/04/01 05:25:25;;;;;;;8.40;3.13;;;9.40;99.90;;;;;;5027952;28;20112;-82
2023/04/01 05:27:50;;;;;;;7.90;2.38;;;9.40;99.90;;;;;;5026846;28;20137;-81
2023/04/01 05:30:16;;;;;;;5.45;2.58;;;9.40;99.90;;;;;;5032681;28;20084;-82
2023/04/01 05:32:43;;;;;;;8.40;2.67;;;9.40;99.90;;;;;;5025899;28;20032;-82
2023/04/01 05:35:09;;;;;;;5.95;2.05;;;9.30;99.90;;;;;;5028871;28;20029;-82
2023/04/01 05:37:36;;;;;;;10.65;2.00;;;9.40;99.90;;;;;;5026087;28;20033;-82
2023/04/01 05:40:03;;;;;;;4.07;1.77;;;9.40;99.90;;;;;;5026137;28;20075;-82
2023/04/01 05:42:29;;;;;;;3.83;1.58;;;9.40;99.90;;;;;;5034110;28;20103;-82
2023/04/01 05:44:55;;;;;;;3.05;1.35;;;9.40;99.90;;;;;;5035930;28;20067;-81
2023/04/01 05:47:22;;;;;;;3.15;1.30;;;9.40;99.90;;;;;;5022007;28;20062;-82
2023/04/01 05:49:48;;;;;;;3.83;1.27;;;9.40;99.90;;;;;;5016889;28;20387;-82
2023/04/01 05:52:14;;;;;;;5.82;1.40;;;9.30;99.90;;;;;;5029005;28;20083;-83
2023/04/01 05:54:40;;;;;;;3.90;1.45;;;9.40;99.90;;;;;;5035856;28;20026;-82
2023/04/01 05:57:05;;;;;;;5.85;1.48;;;9.30;99.90;;;;;;5025822;28;20392;-82
2023/04/01 05:59:31;;;;;;;3.58;1.38;;;9.30;99.90;;;;;;5021637;28;20026;-82
2023/04/01 06:01:58;;;;;;;8.38;2.03;;;9.30;99.90;;;;;;5018081;28;20050;-84
2023/04/01 06:04:24;;;;;;;6.05;1.88;;;9.40;99.90;;;;;;5024212;28;20041;-82
2023/04/01 06:06:51;;;;;;;4.85;1.50;;;9.40;99.90;;;;;;5025140;28;20098;-82
2023/04/01 06:09:21;;;;;;;4.72;1.33;;;9.40;99.90;;;;;;5026040;28;20230;-83
2023/04/01 06:12:24;;;;;;;8.80;1.80;;;9.40;99.90;;;;;;5024448;28;20092;-82
2023/04/01 06:14:58;;;;;;;3.45;1.33;;;9.40;99.90;;;;;;5017766;28;20091;-82
2023/04/01 06:18:03;;;;;;;6.93;1.42;;;9.40;99.90;;;;;;5031692;28;20028;-81
2023/04/01 06:20:50;;;;;;;2.15;1.48;;;9.40;99.90;;;;;;5035514;28;20198;-82
2023/04/01 06:23:41;;;;;;;4.80;1.90;;;9.40;99.90;;;;;;5028636;28;20045;-82
2023/04/01 06:26:36;;;;;;;8.93;1.90;;;9.40;99.90;;;;;;5026533;28;20025;-88
2023/04/01 06:29:19;;;;;;;9.07;4.05;;;9.40;99.90;;;;;;5019906;28;20044;-84
2023/04/01 06:32:01;;;;;;;8.45;3.00;;;9.40;99.90;;;;;;5037947;28;20025;-81
2023/04/01 06:34:44;;;;;;;3.00;1.55;;;9.50;99.90;;;;;;5030966;28;20032;-82
2023/04/01 06:37:25;;;;;;;2.30;1.38;;;9.50;99.90;;;;;;5024380;28;20033;-82
2023/04/01 06:40:28;;;;;;;3.17;1.38;;;9.60;99.90;;;;;;5035838;28;20037;-82
2023/04/01 06:43:31;;;;;;;6.22;1.40;;;9.60;99.90;;;;;;5029246;28;20042;-83
2023/04/01 06:46:19;;;;;;;10.15;2.00;;;9.60;99.90;;;;;;5023604;28;20116;-82
2023/04/01 06:49:20;;;;;;;3.42;1.25;;;9.60;99.90;;;;;;5036025;28;20035;-84
2023/04/01 06:52:12;;;;;;;8.30;1.42;;;9.60;99.90;;;;;;5046140;28;20029;-81
2023/04/01 06:54:44;;;;;;;4.38;1.30;;;9.60;99.90;;;;;;5017278;28;20033;-83
2023/04/01 06:57:41;;;;;;;4.47;1.52;;;9.60;99.90;;;;;;5024138;28;20025;-81
2023/04/01 07:00:34;;;;;;;7.80;1.50;;;9.60;99.90;;;;;;5026979;28;20049;-83
2023/04/01 07:03:26;;;;;;;3.05;1.20;;;9.60;99.90;;;;;;5040818;28;20057;-82
2023/04/01 07:05:53;;;;;;;5.57;1.50;;;9.60;99.90;;;;;;5025296;28;20313;-82
2023/04/01 07:08:31;;;;;;;9.15;1.40;;;9.70;99.90;;;;;;5030867;28;20482;-82
2023/04/01 07:10:59;;;;;;;2.35;1.02;;;9.70;99.90;;;;;;5032733;28;20056;-82
2023/04/01 07:13:32;;;;;;;5.18;1.20;;;9.80;99.90;;;;;;5016240;28;20125;-84
2023/04/01 07:16:16;;;;;;;2.70;1.10;;;9.70;99.90;;;;;;5020889;28;20437;-84
2023/04/01 07:18:58;;;;;;;4.03;1.30;;;9.80;99.90;;;;;;5020572;28;20116;-83
2023/04/01 07:21:35;;;;;;;4.60;1.35;;;9.80;99.90;;;;;;5021864;28;20037;-84
2023/04/01 07:24:08;;;;;;;5.63;1.55;;;9.90;99.90;;;;;;5023103;28;20092;-83
2023/04/01 07:26:34;;;;;;;9.40;1.55;;;9.90;99.90;;;;;;5026479;28;20171;-83
2023/04/01 07:29:00;;;;;;;3.65;1.20;;;9.90;99.90;;;;;;5023742;28;20112;-84
2023/04/01 07:31:49;;;;;;;5.20;1.52;;;10.00;99.90;;;;;;5026375;28;20411;-82
2023/04/01 07:35:09;;;;;;;4.43;1.10;;;9.90;99.90;;;;;;5023110;28;20049;-83
2023/04/01 07:38:00;;;;;;;3.83;1.40;;;10.00;99.90;;;;;;4982969;28;20044;-82
2023/04/01 07:40:46;;;;;;;2.72;1.10;;;10.00;99.90;;;;;;4955564;28;20034;-81
2023/04/01 07:43:15;;;;;;;8.77;1.50;;;10.00;99.90;;;;;;4961359;28;20123;-81
2023/04/01 07:45:44;;;;;;;7.47;1.58;;;10.10;99.90;;;;;;5012286;28;20568;-81
2023/04/01 07:48:26;;;;;;;5.82;1.13;;;10.20;99.90;;;;;;5026193;28;20422;-82
2023/04/01 07:51:10;;;;;;;9.30;1.73;;;10.20;99.90;;;;;;5021397;28;20036;-81
2023/04/01 07:53:44;;;;;;;3.58;1.48;;;10.20;99.90;;;;;;5021905;28;20076;-82
2023/04/01 07:56:27;;;;;;;6.38;1.45;;;10.20;99.90;;;;;;5026905;28;20032;-83
2023/04/01 07:59:39;;;;;;;4.30;1.58;;;10.30;99.90;;;;;;5018965;28;20494;-81
2023/04/01 08:02:05;;;;;;;2.53;1.48;;;10.30;99.90;;;;;;4986570;28;20046;-82
2023/04/01 08:04:33;;;;;;;4.97;1.55;;;10.30;99.90;;;;;;4973974;28;20042;-82
2023/04/01 08:07:23;;;;;;;1.88;1.13;;;10.30;99.90;;;;;;5004473;28;20041;-82
2023/04/01 08:10:08;;;;;;;2.47;0.95;;;10.30;99.90;;;;;;5026103;28;20104;-81
2023/04/01 08:13:05;;;;;;;9.07;1.17;;;10.40;99.90;;;;;;5025169;28;20026;-82
2023/04/01 08:15:57;;;;;;;2.30;0.90;;;10.50;99.90;;;;;;5028185;28;20039;-82
2023/04/01 08:18:50;;;;;;;1.60;0.85;;;10.50;99.90;;;;;;5021491;28;20493;-83
2023/04/01 08:21:27;;;;;;;2.60;0.75;;;10.60;99.90;;;;;;5024777;28;20037;-83
2023/04/01 08:23:57;;;;;;;6.80;1.05;;;10.60;99.90;;;;;;5027679;28;20409;-81
2023/04/01 08:26:41;;;;;;;3.33;1.02;;;10.80;99.90;;;;;;5018717;28;20036;-85
2023/04/01 08:29:17;;;;;;;5.88;0.95;;;10.90;99.90;;;;;;5035009;28;20483;-80
2023/04/01 08:31:59;;;;;;;1.45;0.82;;;11.00;99.90;;;;;;5023451;28;20097;-82
2023/04/01 08:34:38;;;;;;;3.35;0.80;;;11.10;99.90;;;;;;5026406;28;20125;-82
2023/04/01 08:37:28;;;;;;;6.43;2.42;;;11.10;99.90;;;;;;5035966;28;20486;-81
2023/04/01 08:39:59;;;;;;;1.40;0.80;;;11.20;99.90;;;;;;5025563;28;20108;-82
2023/04/01 08:42:54;;;;;;;1.77;0.63;;;11.30;99.90;;;;;;5032844;28;20398;-82
2023/04/01 08:45:34;;;;;;;2.40;0.70;;;11.30;99.90;;;;;;5021639;28;20313;-80
2023/04/01 08:48:20;;;;;;;2.92;1.23;;;11.20;99.90;;;;;;5027629;28;20108;-80
2023/04/01 08:50:55;;;;;;;5.47;0.80;;;11.20;99.90;;;;;;5024145;28;20645;-80
2023/04/01 08:53:50;;;;;;;3.97;0.65;;;11.10;99.90;;;;;;5025195;28;20037;-81
2023/04/01 08:56:47;;;;;;;2.38;1.25;;;11.00;99.90;;;;;;5017984;28;20121;-82
2023/04/01 08:59:23;;;;;;;3.58;1.10;;;11.00;99.90;;;;;;5032226;28;20040;-81
2023/04/01 09:02:13;;;;;;;1.90;0.88;;;10.90;99.90;;;;;;5027095;28;20178;-82
2023/04/01 09:05:11;;;;;;;4.50;1.05;;;10.90;99.90;;;;;;5017713;28;20091;-83
2023/04/01 09:08:24;;;;;;;3.28;0.90;;;10.90;99.90;;;;;;5029698;28;20056;-81
2023/04/01 09:11:25;;;;;;;5.60;2.17;;;10.90;99.90;;;;;;5023037;28;20049;-82
2023/04/01 09:14:19;;;;;;;6.28;0.98;;;10.80;99.90;;;;;;5029544;28;20029;-81
2023/04/01 09:17:22;;;;;;;3.30;0.95;;;10.80;99.90;;;;;;5018201;28;20033;-81
2023/04/01 09:20:06;;;;;;;2.65;0.80;;;10.80;99.90;;;;;;5024358;28;20082;-83
2023/04/01 09:22:40;;;;;;;3.03;0.82;;;10.80;99.90;;;;;;5021183;28;20037;-81
2023/04/01 09:25:20;;;;;;;1.50;0.75;;;10.80;99.90;;;;;;5019848;28;20123;-82
2023/04/01 09:28:27;;;;;;;5.00;1.15;;;10.80;99.90;;;;;;5023864;28;20033;-82
2023/04/01 09:31:31;;;;;;;4.40;1.95;;;10.80;99.90;;;;;;5027778;28;20035;-83
2023/04/01 09:34:15;;;;;;;2.58;0.88;;;10.80;99.90;;;;;;5024391;28;20048;-81
2023/04/01 09:36:59;;;;;;;2.30;0.82;;;10.80;99.90;;;;;;5029181;28;20040;-82
2023/04/01 09:39:36;;;;;;;3.25;1.02;;;10.90;99.90;;;;;;5024681;28;20053;-79
2023/04/01 09:42:14;;;;;;;3.92;0.65;;;10.90;99.90;;;;;;5023706;28;20025;-82
2023/04/01 09:45:02;;;;;;;1.73;0.85;;;11.00;99.90;;;;;;5034913;28;20037;-80
2023/04/01 09:47:49;;;;;;;5.78;1.40;;;11.10;99.90;;;;;;5022314;28;20029;-86
2023/04/01 09:50:37;;;;;;;1.45;0.65;;;11.10;99.90;;;;;;5025448;28;20033;-82
2023/04/01 09:53:17;;;;;;;6.85;1.75;;;11.10;99.90;;;;;;5037807;28;20504;-82
2023/04/01 09:56:20;;;;;;;1.02;0.60;;;11.10;99.90;;;;;;5019442;28;20039;-81
2023/04/01 09:59:13;;;;;;;2.60;0.90;;;11.20;99.90;;;;;;5029960;28;20494;-82
2023/04/01 10:02:16;;;;;;;4.05;1.05;;;11.30;99.90;;;;;;5035251;28;20068;-81
2023/04/01 10:05:23;;;;;;;1.52;0.60;;;11.30;99.90;;;;;;5032029;28;20030;-81
2023/04/01 10:08:29;;;;;;;4.60;0.73;;;11.40;99.90;;;;;;5026089;28;20048;-81
2023/04/01 10:11:23;;;;;;;2.53;0.55;;;11.50;99.90;;;;;;5028931;28;20120;-81
2023/04/01 10:14:20;;;;;;;1.80;0.80;;;11.50;99.90;;;;;;5027864;28;20041;-82
2023/04/01 10:17:17;;;;;;;1.40;0.55;;;11.50;99.90;;;;;;5035740;28;20465;-82
2023/04/01 10:19:52;;;;;;;2.28;0.75;;;11.50;99.90;;;;;;4983772;28;20455;-82
2023/04/01 10:22:38;;;;;;;1.15;0.70;;;11.50;99.90;;;;;;5024621;28;20033;-82
2023/04/01 10:25:41;;;;;;;0.70;0.70;;;11.50;99.90;;;;;;5021301;28;20048;-82
2023/04/01 10:28:19;;;;;;;1.98;0.90;;;11.50;99.90;;;;;;5028934;28;20045;-82
2023/04/01 10:31:05;;;;;;;1.67;1.05;;;11.50;99.90;;;;;;5026255;28;20105;-83
2023/04/01 10:33:46;;;;;;;1.08;0.98;;;11.50;99.90;;;;;;5013147;28;20057;-82
2023/04/01 10:36:49;;;;;;;3.63;1.08;;;11.60;99.90;;;;;;4971373;22;20089;-83
2023/04/01 10:39:29;;;;;;;1.88;1.25;;;11.50;99.90;;;;;;4999321;28;20037;-81
2023/04/01 10:42:01;;;;;;;3.65;1.13;;;11.60;99.90;;;;;;4996306;28;20423;-82
2023/04/01 10:45:18;;;;;;;1.67;0.80;;;11.60;99.90;;;;;;5003644;28;20038;-81
2023/04/01 10:48:18;;;;;;;2.47;0.80;;;11.70;99.90;;;;;;4989421;28;20046;-81
2023/04/01 10:51:16;;;;;;;5.80;1.85;;;11.70;99.90;;;;;;5000890;28;20043;-81
2023/04/01 10:54:20;;;;;;;1.10;0.80;;;11.70;99.90;;;;;;4996589;28;20514;-82
2023/04/01 10:57:12;;;;;;;1.92;1.02;;;11.70;99.90;;;;;;5002779;28;20021;-83
2023/04/01 11:00:24;;;;;;;0.80;0.80;;;11.70;99.90;;;;;;5003509;28;20032;-82
2023/04/01 11:03:21;;;;;;;1.95;0.85;;;11.70;99.90;;;;;;4989045;28;20089;-81
2023/04/01 11:05:58;;;;;;;2.63;0.93;;;11.70;99.90;;;;;;4998117;28;20514;-82
2023/04/01 11:09:04;;;;;;;5.22;0.80;;;11.60;99.90;;;;;;5000927;28;20021;-82
2023/04/01 11:12:03;;;;;;;0.88;0.63;;;11.60;99.90;;;;;;5001272;28;20071;-81
2023/04/01 11:14:54;;;;;;;1.10;0.65;;;11.60;99.90;;;;;;4993613;28;21219;-81
2023/04/01 11:17:47;;;;;;;4.88;0.73;;;11.60;99.90;;;;;;4999670;28;20116;-81
2023/04/01 11:20:44;;;;;;;0.50;0.50;;;11.60;99.90;;;;;;5000505;28;20117;-79
2023/04/01 11:23:14;;;;;;;0.52;0.52;;;11.60;99.90;;;;;;5001701;28;20049;-79
2023/04/01 11:26:01;;;;;;;1.50;0.55;;;11.60;99.90;;;;;;5005125;28;20222;-80
2023/04/01 11:29:03;;;;;;;0.93;0.57;;;11.70;99.90;;;;;;4997418;28;20030;-79
2023/04/01 11:31:56;;;;;;;1.13;0.70;;;11.60;99.90;;;;;;4972464;28;20052;-79
2023/04/01 11:34:48;;;;;;;1.00;0.63;;;11.50;99.90;;;;;;4996018;28;20029;-79
2023/04/01 11:37:31;;;;;;;2.08;0.80;;;11.60;99.90;;;;;;5003159;28;20128;-80
2023/04/01 11:40:23;;;;;;;0.68;0.68;;;11.60;99.90;;;;;;4996416;28;20054;-80
2023/04/01 11:43:06;;;;;;;0.50;0.50;;;11.60;99.90;;;;;;4997173;28;20402;-81
2023/04/01 11:45:39;;;;;;;2.85;1.98;;;11.50;99.90;;;;;;4996296;28;20754;-81
2023/04/01 11:48:43;;;;;;;3.42;0.93;;;11.50;99.90;;;;;;4993802;28;20399;-81
2023/04/01 11:51:38;;;;;;;4.63;3.05;;;11.60;99.90;;;;;;4998524;28;20104;-80
2023/04/01 11:54:29;;;;;;;2.63;1.43;;;11.60;99.90;;;;;;4998459;28;20510;-80
2023/04/01 11:57:10;;;;;;;3.78;2.20;;;11.60;99.90;;;;;;4996401;28;20281;-80
2023/04/01 11:59:57;;;;;;;2.70;2.40;;;11.60;99.90;;;;;;4996729;28;20164;-81
2023/04/01 12:02:40;;;;;;;2.63;1.38;;;11.60;99.90;;;;;;5004226;28;20048;-81
2023/04/01 12:05:33;;;;;;;1.00;0.77;;;11.60;99.90;;;;;;5001898;28;20034;-81
2023/04/01 12:08:17;;;;;;;6.43;4.85;;;11.70;99.90;;;;;;4992702;28;20054;-80
2023/04/01 12:11:04;;;;;;;3.35;2.67;;;11.70;99.90;;;;;;4998852;28;20080;-80
2023/04/01 12:13:40;;;;;;;1.55;1.20;;;11.80;99.90;;;;;;4996143;28;20026;-81
2023/04/01 12:16:26;;;;;;;2.13;1.25;;;11.90;99.90;;;;;;4988340;28;20092;-80
2023/04/01 12:19:10;;;;;;;0.60;0.60;;;11.90;99.90;;;;;;4994085;28;20502;-79
2023/04/01 12:21:56;;;;;;;0.80;0.60;;;11.90;99.90;;;;;;4993449;28;20030;-81
2023/04/01 12:24:52;;;;;;;2.50;0.68;;;11.80;99.90;;;;;;4998418;28;20397;-80
2023/04/01 12:27:35;;;;;;;1.67;0.80;;;11.70;99.90;;;;;;5003428;28;20037;-80
2023/04/01 12:30:26;;;;;;;0.80;0.70;;;11.70;99.90;;;;;;4994019;28;20042;-80
2023/04/01 12:33:35;;;;;;;1.45;0.60;;;11.70;99.90;;;;;;4990987;28;20038;-81
2023/04/01 12:36:18;;;;;;;1.15;0.60;;;11.70;99.90;;;;;;4996595;28;20058;-80
2023/04/01 12:39:22;;;;;;;4.93;0.45;;;11.70;99.90;;;;;;4998294;28;20029;-81
2023/04/01 12:42:10;;;;;;;0.50;0.50;;;11.60;99.90;;;;;;4992733;28;20040;-80
2023/04/01 12:44:49;;;;;;;0.77;0.77;;;11.50;99.90;;;;;;4987573;28;20132;-80
2023/04/01 12:48:10;;;;;;;1.25;1.02;;;11.50;99.90;;;;;;5000666;28;20022;-79
2023/04/01 12:51:03;;;;;;;2.55;0.80;;;11.60;99.90;;;;;;4985681;28;20034;-81
2023/04/01 12:54:07;;;;;;;1.20;0.77;;;11.50;99.90;;;;;;4991096;28;20042;-79
2023/04/01 12:57:06;;;;;;;2.35;0.98;;;11.40;99.90;;;;;;4996299;28;20073;-80
2023/04/01 12:59:42;;;;;;;3.10;0.82;;;11.40;99.90;;;;;;4999025;28;20079;-80
2023/04/01 13:02:23;;;;;;;0.57;0.55;;;11.30;99.90;;;;;;4998298;28;20184;-81
2023/04/01 13:05:14;;;;;;;3.28;2.03;;;11.30;99.90;;;;;;4995121;28;20081;-78
2023/04/01 13:08:09;;;;;;;1.05;0.60;;;11.30;99.90;;;;;;4992002;28;20029;-81
2023/04/01 13:10:56;;;;;;;1.05;0.85;;;11.30;99.90;;;;;;4996961;28;20033;-80
2023/04/01 13:13:31;;;;;;;2.13;0.63;;;11.30;99.90;;;;;;4998925;28;20034;-80
2023/04/01 13:16:21;;;;;;;2.97;1.35;;;11.30;99.90;;;;;;4998038;28;20395;-81
2023/04/01 13:18:57;;;;;;;1.40;0.55;;;11.20;99.90;;;;;;4992327;28;20030;-79
2023/04/01 13:21:38;;;;;;;0.63;0.40;;;11.20;99.90;;;;;;4999770;28;20526;-79
2023/04/01 13:24:29;;;;;;;1.00;0.90;;;11.30;99.90;;;;;;4994328;28;20386;-79
2023/04/01 13:27:20;;;;;;;3.50;1.02;;;11.30;99.90;;;;;;4995566;28;20040;-80
2023/04/01 13:30:18;;;;;;;0.60;0.60;;;11.40;99.90;;;;;;4997720;28;20388;-80
2023/04/01 13:33:03;;;;;;;1.48;0.68;;;11.50;99.90;;;;;;5001548;28;20030;-79
2023/04/01 13:35:50;;;;;;;1.65;0.50;;;11.50;99.90;;;;;;5000494;28;20376;-81
2023/04/01 13:38:40;;;;;;;1.33;0.60;;;11.60;99.90;;;;;;4991692;28;20104;-80
2023/04/01 13:41:33;;;;;;;1.55;0.60;;;11.60;99.90;;;;;;4993006;28;20022;-80
2023/04/01 13:44:06;;;;;;;0.63;0.60;;;11.60;99.90;;;;;;4996396;28;20128;-81
2023/04/01 13:46:46;;;;;;;8.27;2.22;;;11.60;99.90;;;;;;5000363;28;20038;-80
2023/04/01 13:49:24;;;;;;;1.33;1.13;;;11.60;99.90;;;;;;4998580;28;20091;-80
2023/04/01 13:52:14;;;;;;;3.65;1.23;;;11.60;99.90;;;;;;5002178;28;20042;-79
2023/04/01 13:54:43;;;;;;;1.67;1.35;;;11.60;99.90;;;;;;4998613;28;20018;-80